In Rescue
 
Open Full Screen Window  High Contrast Mode
Wind Gusting 00 knots
06
January 24, 2020 7:20 PM CST
Weather Information
Wind Direction
  350 °
Wind Speed
  06 kt (7 mph)
Wind Gust
  00 kt (0 mph)
Altimeter
30.01 in
Visibility
10 SM
Temperature
-02° C
28° F
Dewpoint
-04° C
25° F
Humidity
86%
1hr Rain Fall
00.00 in.
24hr Rain Fall
00.00 in.
Sky Condition
Overcast @ 4,300 ft
Broken @ 3,200 ft
VFR

METAR KOVL 250120Z AUTO 35006KT 10SM BKN032 OVC043 M02/M04 A3001 RMK AO2

FAA Disclaimer: The data displayed is for advisory purposes only and is not to be used for flight planning or operations.